sensor_id;sensor_type;location;lat;lon;timestamp;P1;durP1;ratioP1;P2;durP2;ratioP2
49139;SDS011;34959;49.310;8.646;2023-09-30T00:00:06;6.25;;;1.80;;
49139;SDS011;34959;49.310;8.646;2023-09-30T00:02:33;4.75;;;1.95;;
49139;SDS011;34959;49.310;8.646;2023-09-30T00:04:59;5.75;;;1.90;;
49139;SDS011;34959;49.310;8.646;2023-09-30T00:07:24;7.13;;;2.10;;
49139;SDS011;34959;49.310;8.646;2023-09-30T00:09:49;3.15;;;1.58;;
49139;SDS011;34959;49.310;8.646;2023-09-30T00:12:16;4.05;;;1.80;;
49139;SDS011;34959;49.310;8.646;2023-09-30T00:14:42;3.45;;;1.67;;
49139;SDS011;34959;49.310;8.646;2023-09-30T00:17:07;4.93;;;2.20;;
49139;SDS011;34959;49.310;8.646;2023-09-30T00:19:33;4.72;;;1.80;;
49139;SDS011;34959;49.310;8.646;2023-09-30T00:21:58;4.80;;;2.13;;
49139;SDS011;34959;49.310;8.646;2023-09-30T00:24:25;4.43;;;1.90;;
49139;SDS011;34959;49.310;8.646;2023-09-30T00:26:50;4.10;;;2.05;;
49139;SDS011;34959;49.310;8.646;2023-09-30T00:29:16;6.15;;;1.90;;
49139;SDS011;34959;49.310;8.646;2023-09-30T00:31:43;4.20;;;1.70;;
49139;SDS011;34959;49.310;8.646;2023-09-30T00:34:09;3.15;;;1.80;;
49139;SDS011;34959;49.310;8.646;2023-09-30T00:36:34;5.70;;;2.10;;
49139;SDS011;34959;49.310;8.646;2023-09-30T00:39:00;3.33;;;1.70;;
49139;SDS011;34959;49.310;8.646;2023-09-30T00:41:25;4.22;;;2.08;;
49139;SDS011;34959;49.310;8.646;2023-09-30T00:43:51;5.15;;;1.80;;
49139;SDS011;34959;49.310;8.646;2023-09-30T00:46:29;4.60;;;2.22;;
49139;SDS011;34959;49.310;8.646;2023-09-30T00:48:57;3.55;;;1.80;;
49139;SDS011;34959;49.310;8.646;2023-09-30T00:51:23;3.97;;;1.90;;
49139;SDS011;34959;49.310;8.646;2023-09-30T00:53:49;3.60;;;2.00;;
49139;SDS011;34959;49.310;8.646;2023-09-30T00:56:19;2.90;;;1.60;;
49139;SDS011;34959;49.310;8.646;2023-09-30T00:58:45;3.78;;;1.70;;
49139;SDS011;34959;49.310;8.646;2023-09-30T01:01:12;6.32;;;2.00;;
49139;SDS011;34959;49.310;8.646;2023-09-30T01:03:37;3.28;;;1.95;;
49139;SDS011;34959;49.310;8.646;2023-09-30T01:06:03;4.38;;;1.90;;
49139;SDS011;34959;49.310;8.646;2023-09-30T01:08:29;3.22;;;1.95;;
49139;SDS011;34959;49.310;8.646;2023-09-30T01:10:54;3.78;;;1.75;;
49139;SDS011;34959;49.310;8.646;2023-09-30T01:13:20;4.90;;;2.20;;
49139;SDS011;34959;49.310;8.646;2023-09-30T01:15:45;4.18;;;2.17;;
49139;SDS011;34959;49.310;8.646;2023-09-30T01:18:12;4.82;;;2.00;;
49139;SDS011;34959;49.310;8.646;2023-09-30T01:20:38;5.75;;;2.30;;
49139;SDS011;34959;49.310;8.646;2023-09-30T01:23:03;3.53;;;1.83;;
49139;SDS011;34959;49.310;8.646;2023-09-30T01:25:29;3.65;;;1.90;;
49139;SDS011;34959;49.310;8.646;2023-09-30T01:27:55;4.15;;;2.35;;
49139;SDS011;34959;49.310;8.646;2023-09-30T01:30:20;5.68;;;2.17;;
49139;SDS011;34959;49.310;8.646;2023-09-30T01:32:48;2.80;;;1.85;;
49139;SDS011;34959;49.310;8.646;2023-09-30T01:35:13;3.92;;;1.95;;
49139;SDS011;34959;49.310;8.646;2023-09-30T01:37:39;3.75;;;1.70;;
49139;SDS011;34959;49.310;8.646;2023-09-30T01:40:04;2.70;;;1.55;;
49139;SDS011;34959;49.310;8.646;2023-09-30T01:42:36;4.30;;;2.17;;
49139;SDS011;34959;49.310;8.646;2023-09-30T01:45:01;4.13;;;2.15;;
49139;SDS011;34959;49.310;8.646;2023-09-30T01:47:27;3.15;;;1.88;;
49139;SDS011;34959;49.310;8.646;2023-09-30T01:49:52;4.95;;;1.90;;
49139;SDS011;34959;49.310;8.646;2023-09-30T01:52:18;2.53;;;1.75;;
49139;SDS011;34959;49.310;8.646;2023-09-30T01:54:43;2.95;;;2.00;;
49139;SDS011;34959;49.310;8.646;2023-09-30T01:57:09;3.38;;;1.75;;
49139;SDS011;34959;49.310;8.646;2023-09-30T01:59:34;3.55;;;1.90;;
49139;SDS011;34959;49.310;8.646;2023-09-30T02:02:00;3.10;;;1.77;;
49139;SDS011;34959;49.310;8.646;2023-09-30T02:04:25;4.78;;;2.33;;
49139;SDS011;34959;49.310;8.646;2023-09-30T02:06:51;3.03;;;1.70;;
49139;SDS011;34959;49.310;8.646;2023-09-30T02:09:16;3.47;;;1.90;;
49139;SDS011;34959;49.310;8.646;2023-09-30T02:11:42;3.28;;;1.80;;
49139;SDS011;34959;49.310;8.646;2023-09-30T02:14:09;3.45;;;1.90;;
49139;SDS011;34959;49.310;8.646;2023-09-30T02:16:37;3.63;;;1.98;;
49139;SDS011;34959;49.310;8.646;2023-09-30T02:19:03;4.25;;;1.50;;
49139;SDS011;34959;49.310;8.646;2023-09-30T02:21:28;3.05;;;1.80;;
49139;SDS011;34959;49.310;8.646;2023-09-30T02:23:54;3.83;;;1.70;;
49139;SDS011;34959;49.310;8.646;2023-09-30T02:26:20;3.13;;;1.58;;
49139;SDS011;34959;49.310;8.646;2023-09-30T02:28:46;4.15;;;2.08;;
49139;SDS011;34959;49.310;8.646;2023-09-30T02:31:12;5.97;;;1.83;;
49139;SDS011;34959;49.310;8.646;2023-09-30T02:33:37;2.60;;;1.45;;
49139;SDS011;34959;49.310;8.646;2023-09-30T02:36:06;3.08;;;1.77;;
49139;SDS011;34959;49.310;8.646;2023-09-30T02:38:32;3.40;;;1.77;;
49139;SDS011;34959;49.310;8.646;2023-09-30T02:40:58;4.22;;;2.00;;
49139;SDS011;34959;49.310;8.646;2023-09-30T02:43:23;3.33;;;1.75;;
49139;SDS011;34959;49.310;8.646;2023-09-30T02:45:48;3.25;;;1.60;;
49139;SDS011;34959;49.310;8.646;2023-09-30T02:48:15;3.30;;;1.80;;
49139;SDS011;34959;49.310;8.646;2023-09-30T02:50:43;4.25;;;2.10;;
49139;SDS011;34959;49.310;8.646;2023-09-30T02:53:12;4.35;;;1.80;;
49139;SDS011;34959;49.310;8.646;2023-09-30T02:55:38;3.17;;;1.60;;
49139;SDS011;34959;49.310;8.646;2023-09-30T02:58:04;5.10;;;1.90;;
49139;SDS011;34959;49.310;8.646;2023-09-30T03:00:29;3.40;;;1.90;;
49139;SDS011;34959;49.310;8.646;2023-09-30T03:02:59;3.80;;;1.88;;
49139;SDS011;34959;49.310;8.646;2023-09-30T03:05:26;4.03;;;2.05;;
49139;SDS011;34959;49.310;8.646;2023-09-30T03:07:53;2.55;;;1.60;;
49139;SDS011;34959;49.310;8.646;2023-09-30T03:10:19;2.78;;;1.50;;
49139;SDS011;34959;49.310;8.646;2023-09-30T03:12:48;3.22;;;1.73;;
49139;SDS011;34959;49.310;8.646;2023-09-30T03:15:14;2.70;;;1.60;;
49139;SDS011;34959;49.310;8.646;2023-09-30T03:17:40;2.38;;;1.52;;
49139;SDS011;34959;49.310;8.646;2023-09-30T03:20:06;3.67;;;1.95;;
49139;SDS011;34959;49.310;8.646;2023-09-30T03:22:36;3.17;;;1.65;;
49139;SDS011;34959;49.310;8.646;2023-09-30T03:25:01;3.58;;;1.80;;
49139;SDS011;34959;49.310;8.646;2023-09-30T03:27:27;4.72;;;2.05;;
49139;SDS011;34959;49.310;8.646;2023-09-30T03:29:52;2.78;;;1.80;;
49139;SDS011;34959;49.310;8.646;2023-09-30T03:32:18;2.80;;;1.80;;
49139;SDS011;34959;49.310;8.646;2023-09-30T03:34:43;2.42;;;1.55;;
49139;SDS011;34959;49.310;8.646;2023-09-30T03:37:11;2.88;;;1.58;;
49139;SDS011;34959;49.310;8.646;2023-09-30T03:39:36;3.70;;;1.77;;
49139;SDS011;34959;49.310;8.646;2023-09-30T03:42:02;3.05;;;1.73;;
49139;SDS011;34959;49.310;8.646;2023-09-30T03:44:28;2.88;;;1.73;;
49139;SDS011;34959;49.310;8.646;2023-09-30T03:46:54;3.00;;;1.70;;
49139;SDS011;34959;49.310;8.646;2023-09-30T03:49:19;3.45;;;1.58;;
49139;SDS011;34959;49.310;8.646;2023-09-30T03:51:45;3.55;;;1.90;;
49139;SDS011;34959;49.310;8.646;2023-09-30T03:54:11;4.25;;;1.83;;
49139;SDS011;34959;49.310;8.646;2023-09-30T03:56:36;3.50;;;2.03;;
49139;SDS011;34959;49.310;8.646;2023-09-30T03:59:03;3.55;;;1.98;;
49139;SDS011;34959;49.310;8.646;2023-09-30T04:01:29;2.65;;;1.60;;
49139;SDS011;34959;49.310;8.646;2023-09-30T04:03:56;3.13;;;1.67;;
49139;SDS011;34959;49.310;8.646;2023-09-30T04:06:21;2.45;;;1.52;;
49139;SDS011;34959;49.310;8.646;2023-09-30T04:08:47;2.58;;;1.70;;
49139;SDS011;34959;49.310;8.646;2023-09-30T04:11:12;3.50;;;1.67;;
49139;SDS011;34959;49.310;8.646;2023-09-30T04:13:43;3.03;;;1.70;;
49139;SDS011;34959;49.310;8.646;2023-09-30T04:16:10;2.97;;;1.60;;
49139;SDS011;34959;49.310;8.646;2023-09-30T04:18:35;2.85;;;1.60;;
49139;SDS011;34959;49.310;8.646;2023-09-30T04:21:01;3.78;;;1.77;;
49139;SDS011;34959;49.310;8.646;2023-09-30T04:23:27;2.63;;;1.65;;
49139;SDS011;34959;49.310;8.646;2023-09-30T04:25:52;2.85;;;1.67;;
49139;SDS011;34959;49.310;8.646;2023-09-30T04:28:18;2.80;;;1.50;;
49139;SDS011;34959;49.310;8.646;2023-09-30T04:30:46;5.47;;;1.63;;
49139;SDS011;34959;49.310;8.646;2023-09-30T04:33:13;4.38;;;1.50;;
49139;SDS011;34959;49.310;8.646;2023-09-30T04:35:39;3.03;;;1.70;;
49139;SDS011;34959;49.310;8.646;2023-09-30T04:38:04;2.75;;;1.45;;
49139;SDS011;34959;49.310;8.646;2023-09-30T04:40:30;3.83;;;1.63;;
49139;SDS011;34959;49.310;8.646;2023-09-30T04:42:57;2.78;;;1.65;;
49139;SDS011;34959;49.310;8.646;2023-09-30T04:45:26;5.60;;;1.88;;
49139;SDS011;34959;49.310;8.646;2023-09-30T04:47:55;3.55;;;1.75;;
49139;SDS011;34959;49.310;8.646;2023-09-30T04:50:23;3.50;;;1.40;;
49139;SDS011;34959;49.310;8.646;2023-09-30T04:52:50;2.90;;;1.70;;
49139;SDS011;34959;49.310;8.646;2023-09-30T04:55:16;8.88;;;1.95;;
49139;SDS011;34959;49.310;8.646;2023-09-30T04:57:42;3.05;;;1.58;;
49139;SDS011;34959;49.310;8.646;2023-09-30T05:00:10;2.97;;;1.67;;
49139;SDS011;34959;49.310;8.646;2023-09-30T05:02:39;2.72;;;1.45;;
49139;SDS011;34959;49.310;8.646;2023-09-30T05:05:05;3.88;;;1.55;;
49139;SDS011;34959;49.310;8.646;2023-09-30T05:07:31;5.88;;;1.70;;
49139;SDS011;34959;49.310;8.646;2023-09-30T05:09:57;3.30;;;1.70;;
49139;SDS011;34959;49.310;8.646;2023-09-30T05:12:23;3.55;;;1.80;;
49139;SDS011;34959;49.310;8.646;2023-09-30T05:14:48;3.58;;;1.85;;
49139;SDS011;34959;49.310;8.646;2023-09-30T05:17:14;3.30;;;1.73;;
49139;SDS011;34959;49.310;8.646;2023-09-30T05:19:39;3.00;;;1.60;;
49139;SDS011;34959;49.310;8.646;2023-09-30T05:22:05;3.33;;;1.38;;
49139;SDS011;34959;49.310;8.646;2023-09-30T05:24:30;4.15;;;1.75;;
49139;SDS011;34959;49.310;8.646;2023-09-30T05:26:56;3.20;;;1.48;;
49139;SDS011;34959;49.310;8.646;2023-09-30T05:29:21;3.63;;;1.70;;
49139;SDS011;34959;49.310;8.646;2023-09-30T05:31:47;2.70;;;1.80;;
49139;SDS011;34959;49.310;8.646;2023-09-30T05:34:13;3.75;;;1.40;;
49139;SDS011;34959;49.310;8.646;2023-09-30T05:36:39;3.97;;;1.60;;
49139;SDS011;34959;49.310;8.646;2023-09-30T05:39:04;4.82;;;1.60;;
49139;SDS011;34959;49.310;8.646;2023-09-30T05:41:33;4.85;;;1.58;;
49139;SDS011;34959;49.310;8.646;2023-09-30T05:43:58;3.95;;;1.80;;
49139;SDS011;34959;49.310;8.646;2023-09-30T05:46:24;2.20;;;1.33;;
49139;SDS011;34959;49.310;8.646;2023-09-30T05:48:52;3.63;;;1.70;;
49139;SDS011;34959;49.310;8.646;2023-09-30T05:51:17;2.60;;;1.45;;
49139;SDS011;34959;49.310;8.646;2023-09-30T05:53:44;2.40;;;1.40;;
49139;SDS011;34959;49.310;8.646;2023-09-30T05:56:09;3.50;;;1.48;;
49139;SDS011;34959;49.310;8.646;2023-09-30T05:58:37;2.85;;;1.58;;
49139;SDS011;34959;49.310;8.646;2023-09-30T06:01:07;2.33;;;1.33;;
49139;SDS011;34959;49.310;8.646;2023-09-30T06:03:40;2.20;;;1.45;;
49139;SDS011;34959;49.310;8.646;2023-09-30T06:06:15;3.58;;;1.83;;
49139;SDS011;34959;49.310;8.646;2023-09-30T06:08:42;2.55;;;1.40;;
49139;SDS011;34959;49.310;8.646;2023-09-30T06:11:19;2.50;;;1.48;;
49139;SDS011;34959;49.310;8.646;2023-09-30T06:13:55;2.95;;;1.50;;
49139;SDS011;34959;49.310;8.646;2023-09-30T06:16:21;14.30;;;2.10;;
49139;SDS011;34959;49.310;8.646;2023-09-30T06:18:46;2.50;;;1.52;;
49139;SDS011;34959;49.310;8.646;2023-09-30T06:21:15;3.45;;;1.60;;
49139;SDS011;34959;49.310;8.646;2023-09-30T06:23:43;4.65;;;1.45;;
49139;SDS011;34959;49.310;8.646;2023-09-30T06:26:08;3.05;;;1.45;;
49139;SDS011;34959;49.310;8.646;2023-09-30T06:28:34;3.22;;;1.70;;
49139;SDS011;34959;49.310;8.646;2023-09-30T06:31:06;3.30;;;1.50;;
49139;SDS011;34959;49.310;8.646;2023-09-30T06:33:33;2.63;;;1.35;;
49139;SDS011;34959;49.310;8.646;2023-09-30T06:35:58;2.75;;;1.40;;
49139;SDS011;34959;49.310;8.646;2023-09-30T06:38:27;3.85;;;1.33;;
49139;SDS011;34959;49.310;8.646;2023-09-30T06:40:52;6.45;;;2.03;;
49139;SDS011;34959;49.310;8.646;2023-09-30T06:43:19;2.72;;;1.50;;
49139;SDS011;34959;49.310;8.646;2023-09-30T06:45:44;3.08;;;1.55;;
49139;SDS011;34959;49.310;8.646;2023-09-30T06:48:11;5.47;;;1.45;;
49139;SDS011;34959;49.310;8.646;2023-09-30T06:50:48;5.10;;;1.48;;
49139;SDS011;34959;49.310;8.646;2023-09-30T06:53:17;3.47;;;1.58;;
49139;SDS011;34959;49.310;8.646;2023-09-30T06:55:43;3.78;;;1.60;;
49139;SDS011;34959;49.310;8.646;2023-09-30T06:58:09;2.95;;;1.33;;
49139;SDS011;34959;49.310;8.646;2023-09-30T07:00:40;4.28;;;1.42;;
49139;SDS011;34959;49.310;8.646;2023-09-30T07:03:06;3.30;;;1.27;;
49139;SDS011;34959;49.310;8.646;2023-09-30T07:05:31;2.47;;;1.42;;
49139;SDS011;34959;49.310;8.646;2023-09-30T07:07:57;2.35;;;1.40;;
49139;SDS011;34959;49.310;8.646;2023-09-30T07:10:22;9.95;;;1.60;;
49139;SDS011;34959;49.310;8.646;2023-09-30T07:12:47;2.67;;;1.60;;
49139;SDS011;34959;49.310;8.646;2023-09-30T07:15:13;3.95;;;1.23;;
49139;SDS011;34959;49.310;8.646;2023-09-30T07:17:41;3.70;;;1.10;;
49139;SDS011;34959;49.310;8.646;2023-09-30T07:20:06;3.17;;;1.60;;
49139;SDS011;34959;49.310;8.646;2023-09-30T07:22:32;3.95;;;1.60;;
49139;SDS011;34959;49.310;8.646;2023-09-30T07:24:58;4.70;;;1.80;;
49139;SDS011;34959;49.310;8.646;2023-09-30T07:27:24;3.63;;;1.35;;
49139;SDS011;34959;49.310;8.646;2023-09-30T07:29:49;5.18;;;1.52;;
49139;SDS011;34959;49.310;8.646;2023-09-30T07:32:16;3.80;;;1.40;;
49139;SDS011;34959;49.310;8.646;2023-09-30T07:34:41;3.08;;;1.63;;
49139;SDS011;34959;49.310;8.646;2023-09-30T07:37:07;2.65;;;1.45;;
49139;SDS011;34959;49.310;8.646;2023-09-30T07:39:32;2.10;;;1.25;;
49139;SDS011;34959;49.310;8.646;2023-09-30T07:41:57;4.22;;;1.67;;
49139;SDS011;34959;49.310;8.646;2023-09-30T07:44:23;4.43;;;1.65;;
49139;SDS011;34959;49.310;8.646;2023-09-30T07:46:48;5.32;;;1.75;;
49139;SDS011;34959;49.310;8.646;2023-09-30T07:49:14;3.45;;;1.40;;
49139;SDS011;34959;49.310;8.646;2023-09-30T07:51:39;2.10;;;1.30;;
49139;SDS011;34959;49.310;8.646;2023-09-30T07:54:05;2.80;;;1.40;;
49139;SDS011;34959;49.310;8.646;2023-09-30T07:56:31;3.83;;;1.50;;
49139;SDS011;34959;49.310;8.646;2023-09-30T07:58:56;3.13;;;1.50;;
49139;SDS011;34959;49.310;8.646;2023-09-30T08:01:21;2.83;;;1.50;;
49139;SDS011;34959;49.310;8.646;2023-09-30T08:03:47;3.38;;;1.42;;
49139;SDS011;34959;49.310;8.646;2023-09-30T08:06:12;2.65;;;1.58;;
49139;SDS011;34959;49.310;8.646;2023-09-30T08:08:38;4.38;;;1.48;;
49139;SDS011;34959;49.310;8.646;2023-09-30T08:11:04;3.30;;;1.60;;
49139;SDS011;34959;49.310;8.646;2023-09-30T08:13:31;2.30;;;1.50;;
49139;SDS011;34959;49.310;8.646;2023-09-30T08:15:59;4.22;;;2.25;;
49139;SDS011;34959;49.310;8.646;2023-09-30T08:18:25;3.88;;;1.90;;
49139;SDS011;34959;49.310;8.646;2023-09-30T08:20:50;5.97;;;2.65;;
49139;SDS011;34959;49.310;8.646;2023-09-30T08:23:15;8.63;;;3.15;;
49139;SDS011;34959;49.310;8.646;2023-09-30T08:25:41;8.77;;;3.15;;
49139;SDS011;34959;49.310;8.646;2023-09-30T08:28:07;8.80;;;3.65;;
49139;SDS011;34959;49.310;8.646;2023-09-30T08:30:34;9.35;;;3.75;;
49139;SDS011;34959;49.310;8.646;2023-09-30T08:33:01;10.02;;;3.92;;
49139;SDS011;34959;49.310;8.646;2023-09-30T08:35:28;9.90;;;4.55;;
49139;SDS011;34959;49.310;8.646;2023-09-30T08:37:54;10.75;;;4.38;;
49139;SDS011;34959;49.310;8.646;2023-09-30T08:40:22;13.60;;;5.30;;
49139;SDS011;34959;49.310;8.646;2023-09-30T08:42:49;11.70;;;5.03;;
49139;SDS011;34959;49.310;8.646;2023-09-30T08:45:17;12.25;;;5.30;;
49139;SDS011;34959;49.310;8.646;2023-09-30T08:47:43;9.32;;;4.93;;
49139;SDS011;34959;49.310;8.646;2023-09-30T08:50:08;11.68;;;4.93;;
49139;SDS011;34959;49.310;8.646;2023-09-30T08:52:37;9.45;;;4.43;;
49139;SDS011;34959;49.310;8.646;2023-09-30T08:55:03;9.98;;;4.53;;
49139;SDS011;34959;49.310;8.646;2023-09-30T08:57:28;10.50;;;4.47;;
49139;SDS011;34959;49.310;8.646;2023-09-30T08:59:55;10.90;;;4.22;;
49139;SDS011;34959;49.310;8.646;2023-09-30T09:02:21;8.95;;;4.38;;
49139;SDS011;34959;49.310;8.646;2023-09-30T09:04:47;8.20;;;3.47;;
49139;SDS011;34959;49.310;8.646;2023-09-30T09:07:14;7.20;;;3.90;;
49139;SDS011;34959;49.310;8.646;2023-09-30T09:09:39;8.68;;;4.28;;
49139;SDS011;34959;49.310;8.646;2023-09-30T09:12:05;8.68;;;4.43;;
49139;SDS011;34959;49.310;8.646;2023-09-30T09:14:40;9.68;;;3.35;;
49139;SDS011;34959;49.310;8.646;2023-09-30T09:17:08;10.70;;;3.90;;
49139;SDS011;34959;49.310;8.646;2023-09-30T09:19:34;8.18;;;3.90;;
49139;SDS011;34959;49.310;8.646;2023-09-30T09:22:00;8.32;;;3.75;;
49139;SDS011;34959;49.310;8.646;2023-09-30T09:24:38;7.60;;;3.30;;
49139;SDS011;34959;49.310;8.646;2023-09-30T09:27:10;6.35;;;2.70;;
49139;SDS011;34959;49.310;8.646;2023-09-30T09:29:37;9.50;;;2.63;;
49139;SDS011;34959;49.310;8.646;2023-09-30T09:32:13;6.80;;;2.83;;
49139;SDS011;34959;49.310;8.646;2023-09-30T09:34:42;7.53;;;3.00;;
49139;SDS011;34959;49.310;8.646;2023-09-30T09:37:18;9.02;;;3.33;;
49139;SDS011;34959;49.310;8.646;2023-09-30T09:39:54;8.18;;;3.42;;
49139;SDS011;34959;49.310;8.646;2023-09-30T09:42:25;8.07;;;3.38;;
49139;SDS011;34959;49.310;8.646;2023-09-30T09:44:56;8.15;;;3.17;;
49139;SDS011;34959;49.310;8.646;2023-09-30T09:47:23;8.95;;;3.20;;
49139;SDS011;34959;49.310;8.646;2023-09-30T09:49:52;8.52;;;3.25;;
49139;SDS011;34959;49.310;8.646;2023-09-30T09:52:18;6.07;;;2.95;;
49139;SDS011;34959;49.310;8.646;2023-09-30T09:54:45;9.20;;;2.97;;
49139;SDS011;34959;49.310;8.646;2023-09-30T09:57:11;9.10;;;2.97;;
49139;SDS011;34959;49.310;8.646;2023-09-30T09:59:37;7.18;;;2.80;;
49139;SDS011;34959;49.310;8.646;2023-09-30T10:02:08;10.02;;;2.92;;
49139;SDS011;34959;49.310;8.646;2023-09-30T10:04:35;6.82;;;3.03;;
49139;SDS011;34959;49.310;8.646;2023-09-30T10:07:01;5.47;;;2.42;;
49139;SDS011;34959;49.310;8.646;2023-09-30T10:09:28;7.97;;;3.08;;
49139;SDS011;34959;49.310;8.646;2023-09-30T10:11:58;7.20;;;2.45;;
49139;SDS011;34959;49.310;8.646;2023-09-30T10:14:31;7.18;;;2.90;;
49139;SDS011;34959;49.310;8.646;2023-09-30T10:16:58;5.82;;;3.15;;
49139;SDS011;34959;49.310;8.646;2023-09-30T10:19:23;5.43;;;2.80;;
49139;SDS011;34959;49.310;8.646;2023-09-30T10:24:47;5.68;;;2.80;;
49139;SDS011;34959;49.310;8.646;2023-09-30T10:29:57;6.07;;;2.92;;
49139;SDS011;34959;49.310;8.646;2023-09-30T10:35:16;4.53;;;2.58;;
49139;SDS011;34959;49.310;8.646;2023-09-30T10:37:42;5.47;;;2.75;;
49139;SDS011;34959;49.310;8.646;2023-09-30T10:40:08;4.30;;;2.50;;
49139;SDS011;34959;49.310;8.646;2023-09-30T10:50:50;4.25;;;2.42;;
49139;SDS011;34959;49.310;8.646;2023-09-30T10:53:17;5.85;;;2.53;;
49139;SDS011;34959;49.310;8.646;2023-09-30T10:55:44;9.13;;;2.30;;
49139;SDS011;34959;49.310;8.646;2023-09-30T10:58:10;4.97;;;2.58;;
49139;SDS011;34959;49.310;8.646;2023-09-30T11:00:36;5.30;;;2.55;;
49139;SDS011;34959;49.310;8.646;2023-09-30T11:03:03;4.50;;;2.38;;
49139;SDS011;34959;49.310;8.646;2023-09-30T11:05:30;4.43;;;2.55;;
49139;SDS011;34959;49.310;8.646;2023-09-30T11:07:59;4.55;;;2.28;;
49139;SDS011;34959;49.310;8.646;2023-09-30T11:10:28;4.55;;;2.22;;
49139;SDS011;34959;49.310;8.646;2023-09-30T11:12:57;5.30;;;2.38;;
49139;SDS011;34959;49.310;8.646;2023-09-30T11:15:23;4.97;;;2.42;;
49139;SDS011;34959;49.310;8.646;2023-09-30T11:17:49;4.40;;;2.33;;
49139;SDS011;34959;49.310;8.646;2023-09-30T11:20:18;4.30;;;2.47;;
49139;SDS011;34959;49.310;8.646;2023-09-30T11:22:44;5.30;;;2.20;;
49139;SDS011;34959;49.310;8.646;2023-09-30T11:25:17;4.90;;;2.30;;
49139;SDS011;34959;49.310;8.646;2023-09-30T11:27:44;5.22;;;2.80;;
49139;SDS011;34959;49.310;8.646;2023-09-30T11:30:10;4.18;;;2.20;;
49139;SDS011;34959;49.310;8.646;2023-09-30T11:32:37;4.63;;;2.00;;
49139;SDS011;34959;49.310;8.646;2023-09-30T11:35:05;5.32;;;2.30;;
49139;SDS011;34959;49.310;8.646;2023-09-30T11:37:33;4.80;;;2.47;;
49139;SDS011;34959;49.310;8.646;2023-09-30T11:40:12;4.93;;;2.63;;
49139;SDS011;34959;49.310;8.646;2023-09-30T11:42:41;4.30;;;2.35;;
49139;SDS011;34959;49.310;8.646;2023-09-30T11:45:20;3.60;;;1.98;;
49139;SDS011;34959;49.310;8.646;2023-09-30T11:47:47;6.45;;;2.00;;
49139;SDS011;34959;49.310;8.646;2023-09-30T11:50:13;4.97;;;2.00;;
49139;SDS011;34959;49.310;8.646;2023-09-30T11:52:39;5.53;;;2.30;;
49139;SDS011;34959;49.310;8.646;2023-09-30T11:55:10;3.97;;;2.10;;
49139;SDS011;34959;49.310;8.646;2023-09-30T11:57:37;5.32;;;2.22;;
49139;SDS011;34959;49.310;8.646;2023-09-30T12:00:03;3.70;;;2.22;;
49139;SDS011;34959;49.310;8.646;2023-09-30T12:02:38;6.72;;;2.40;;
49139;SDS011;34959;49.310;8.646;2023-09-30T12:05:05;3.40;;;1.83;;
49139;SDS011;34959;49.310;8.646;2023-09-30T12:07:36;7.60;;;2.15;;
49139;SDS011;34959;49.310;8.646;2023-09-30T12:10:03;5.38;;;2.47;;
49139;SDS011;34959;49.310;8.646;2023-09-30T12:12:28;6.25;;;2.28;;
49139;SDS011;34959;49.310;8.646;2023-09-30T12:14:54;3.88;;;2.17;;
49139;SDS011;34959;49.310;8.646;2023-09-30T12:17:20;4.28;;;2.13;;
49139;SDS011;34959;49.310;8.646;2023-09-30T12:19:47;5.40;;;2.53;;
49139;SDS011;34959;49.310;8.646;2023-09-30T12:22:13;6.53;;;2.33;;
49139;SDS011;34959;49.310;8.646;2023-09-30T12:24:38;5.38;;;2.30;;
49139;SDS011;34959;49.310;8.646;2023-09-30T12:27:04;3.85;;;2.28;;
49139;SDS011;34959;49.310;8.646;2023-09-30T12:29:30;11.48;;;4.80;;
49139;SDS011;34959;49.310;8.646;2023-09-30T12:31:56;10.07;;;4.90;;
49139;SDS011;34959;49.310;8.646;2023-09-30T12:34:22;9.57;;;4.07;;
49139;SDS011;34959;49.310;8.646;2023-09-30T12:36:51;8.27;;;4.00;;
49139;SDS011;34959;49.310;8.646;2023-09-30T12:39:17;7.90;;;3.42;;
49139;SDS011;34959;49.310;8.646;2023-09-30T12:41:48;6.38;;;2.90;;
49139;SDS011;34959;49.310;8.646;2023-09-30T12:44:14;5.97;;;3.45;;
49139;SDS011;34959;49.310;8.646;2023-09-30T12:46:40;6.05;;;3.08;;
49139;SDS011;34959;49.310;8.646;2023-09-30T12:49:05;6.93;;;3.28;;
49139;SDS011;34959;49.310;8.646;2023-09-30T12:51:32;6.85;;;3.53;;
49139;SDS011;34959;49.310;8.646;2023-09-30T12:53:58;6.60;;;3.05;;
49139;SDS011;34959;49.310;8.646;2023-09-30T12:56:24;5.57;;;2.63;;
49139;SDS011;34959;49.310;8.646;2023-09-30T12:58:49;4.97;;;2.85;;
49139;SDS011;34959;49.310;8.646;2023-09-30T13:01:15;6.85;;;3.03;;
49139;SDS011;34959;49.310;8.646;2023-09-30T13:03:43;4.72;;;2.60;;
49139;SDS011;34959;49.310;8.646;2023-09-30T13:06:09;6.10;;;3.15;;
49139;SDS011;34959;49.310;8.646;2023-09-30T13:08:34;8.20;;;3.13;;
49139;SDS011;34959;49.310;8.646;2023-09-30T13:11:01;5.97;;;2.78;;
49139;SDS011;34959;49.310;8.646;2023-09-30T13:13:30;7.78;;;3.15;;
49139;SDS011;34959;49.310;8.646;2023-09-30T13:15:58;6.78;;;3.00;;
49139;SDS011;34959;49.310;8.646;2023-09-30T13:18:24;6.10;;;3.05;;
49139;SDS011;34959;49.310;8.646;2023-09-30T13:20:50;9.20;;;3.20;;
49139;SDS011;34959;49.310;8.646;2023-09-30T13:23:17;6.07;;;3.03;;
49139;SDS011;34959;49.310;8.646;2023-09-30T13:25:43;6.07;;;3.10;;
49139;SDS011;34959;49.310;8.646;2023-09-30T13:28:08;8.43;;;2.83;;
49139;SDS011;34959;49.310;8.646;2023-09-30T13:30:34;6.60;;;2.80;;
49139;SDS011;34959;49.310;8.646;2023-09-30T13:33:00;8.45;;;3.05;;
49139;SDS011;34959;49.310;8.646;2023-09-30T13:35:25;5.22;;;2.60;;
49139;SDS011;34959;49.310;8.646;2023-09-30T13:37:51;7.57;;;2.90;;
49139;SDS011;34959;49.310;8.646;2023-09-30T13:40:16;5.32;;;2.83;;
49139;SDS011;34959;49.310;8.646;2023-09-30T13:42:42;5.22;;;2.88;;
49139;SDS011;34959;49.310;8.646;2023-09-30T13:45:07;5.60;;;3.00;;
49139;SDS011;34959;49.310;8.646;2023-09-30T13:47:34;5.68;;;2.80;;
49139;SDS011;34959;49.310;8.646;2023-09-30T13:50:00;4.75;;;2.80;;
49139;SDS011;34959;49.310;8.646;2023-09-30T13:52:27;4.97;;;2.60;;
49139;SDS011;34959;49.310;8.646;2023-09-30T13:54:52;3.65;;;2.28;;
49139;SDS011;34959;49.310;8.646;2023-09-30T13:57:18;4.38;;;2.60;;
49139;SDS011;34959;49.310;8.646;2023-09-30T13:59:44;4.22;;;2.60;;
49139;SDS011;34959;49.310;8.646;2023-09-30T14:02:09;4.65;;;2.70;;
49139;SDS011;34959;49.310;8.646;2023-09-30T14:04:34;4.63;;;2.55;;
49139;SDS011;34959;49.310;8.646;2023-09-30T14:07:03;4.75;;;2.28;;
49139;SDS011;34959;49.310;8.646;2023-09-30T14:09:30;4.47;;;2.65;;
49139;SDS011;34959;49.310;8.646;2023-09-30T14:11:56;4.07;;;2.35;;
49139;SDS011;34959;49.310;8.646;2023-09-30T14:14:21;4.25;;;2.65;;
49139;SDS011;34959;49.310;8.646;2023-09-30T14:16:46;4.47;;;2.33;;
49139;SDS011;34959;49.310;8.646;2023-09-30T14:19:12;5.55;;;2.58;;
49139;SDS011;34959;49.310;8.646;2023-09-30T14:21:39;3.72;;;2.45;;
49139;SDS011;34959;49.310;8.646;2023-09-30T14:24:05;4.50;;;2.38;;
49139;SDS011;34959;49.310;8.646;2023-09-30T14:26:31;4.97;;;2.80;;
49139;SDS011;34959;49.310;8.646;2023-09-30T14:28:57;5.43;;;2.58;;
49139;SDS011;34959;49.310;8.646;2023-09-30T14:31:22;4.43;;;2.20;;
49139;SDS011;34959;49.310;8.646;2023-09-30T14:33:47;4.00;;;2.17;;
49139;SDS011;34959;49.310;8.646;2023-09-30T14:36:13;4.72;;;2.60;;
49139;SDS011;34959;49.310;8.646;2023-09-30T14:38:39;5.05;;;2.63;;
49139;SDS011;34959;49.310;8.646;2023-09-30T14:41:07;3.75;;;2.60;;
49139;SDS011;34959;49.310;8.646;2023-09-30T14:43:33;5.97;;;2.50;;
49139;SDS011;34959;49.310;8.646;2023-09-30T14:46:02;4.57;;;2.58;;
49139;SDS011;34959;49.310;8.646;2023-09-30T14:48:28;4.93;;;2.45;;
49139;SDS011;34959;49.310;8.646;2023-09-30T14:50:54;4.32;;;2.35;;
49139;SDS011;34959;49.310;8.646;2023-09-30T14:53:20;3.58;;;2.13;;
49139;SDS011;34959;49.310;8.646;2023-09-30T14:55:45;3.17;;;1.98;;
49139;SDS011;34959;49.310;8.646;2023-09-30T14:58:11;4.93;;;2.45;;
49139;SDS011;34959;49.310;8.646;2023-09-30T15:00:36;4.40;;;2.22;;